Time;durP1;ratioP1;P1;durP2;ratioP2;P2;SDS_P1;SDS_P2;PMS_P1;PMS_P2;Temp;Humidity;BMP_temperature;BMP_pressure;BME280_temperature;BME280_humidity;BME280_pressure;Samples;Min_cycle;Max_cycle;Signal;HPM_P1;HPM_P2
2023/10/05 00:04:24;;;;;;;7.15;2.40;;;;;;;15.19;67.56;102234.00;5096753;28;20032;-73
2023/10/05 00:06:53;;;;;;;6.03;2.92;;;;;;;15.17;67.50;102244.63;5101073;28;20013;-74
2023/10/05 00:09:20;;;;;;;8.60;2.35;;;;;;;15.14;67.55;102239.53;5093458;28;20754;-74
2023/10/05 00:11:45;;;;;;;6.68;2.17;;;;;;;15.16;67.86;102231.72;5110863;28;20478;-74
2023/10/05 00:14:12;;;;;;;7.60;2.80;;;;;;;15.17;67.65;102233.44;5113848;28;20027;-73
2023/10/05 00:16:39;;;;;;;15.50;2.90;;;;;;;15.16;67.68;102245.69;5113021;28;20028;-73
2023/10/05 00:19:12;;;;;;;11.18;2.80;;;;;;;15.13;67.75;102247.06;5112786;28;20024;-73
2023/10/05 00:21:48;;;;;;;9.93;2.50;;;;;;;15.12;67.65;102241.69;5113863;28;20031;-73
2023/10/05 00:24:15;;;;;;;7.15;2.60;;;;;;;15.12;67.75;102247.28;5112548;28;20050;-73
2023/10/05 00:26:50;;;;;;;8.48;2.38;;;;;;;15.10;67.92;102243.91;5100330;28;20028;-73
2023/10/05 00:29:20;;;;;;;6.35;2.85;;;;;;;15.09;67.89;102253.38;5110201;28;20106;-73
2023/10/05 00:31:49;;;;;;;7.95;2.38;;;;;;;15.11;67.89;102259.59;5112692;28;20031;-74
2023/10/05 00:34:24;;;;;;;10.07;2.90;;;;;;;15.07;67.99;102261.19;5107905;28;20479;-74
2023/10/05 00:36:50;;;;;;;8.40;2.47;;;;;;;15.04;68.17;102256.94;5092806;28;20028;-72
2023/10/05 00:39:19;;;;;;;8.70;2.50;;;;;;;15.10;68.16;102260.69;5092079;28;20132;-71
2023/10/05 00:41:49;;;;;;;8.02;2.80;;;;;;;15.05;68.24;102264.25;5091978;28;20050;-71
2023/10/05 00:44:15;;;;;;;8.00;2.30;;;;;;;15.07;67.98;102267.63;5091822;28;20107;-73
2023/10/05 00:46:48;;;;;;;11.15;2.47;;;;;;;15.05;68.37;102272.63;5096245;28;20281;-72
2023/10/05 00:49:22;;;;;;;6.70;2.25;;;;;;;15.04;68.18;102268.13;5096188;28;20031;-73
2023/10/05 00:54:34;;;;;;;7.95;2.65;;;;;;;15.03;68.32;102268.38;5092860;28;20086;-72
2023/10/05 00:57:08;;;;;;;6.15;2.45;;;;;;;15.03;68.22;102260.00;5092655;28;20049;-73
2023/10/05 00:59:35;;;;;;;9.43;2.50;;;;;;;14.99;68.23;102270.81;5091696;28;20051;-73
2023/10/05 01:04:34;;;;;;;7.75;2.58;;;;;;;14.98;68.43;102269.13;5094526;28;20028;-73
2023/10/05 01:07:17;;;;;;;8.90;2.40;;;;;;;15.00;68.39;102274.47;5095144;28;20024;-73
2023/10/05 01:15:05;;;;;;;10.45;2.50;;;;;;;14.99;68.32;102276.41;5106189;28;20039;-73
2023/10/05 01:17:31;;;;;;;11.35;3.15;;;;;;;14.94;68.83;102263.19;5095459;28;20510;-73
2023/10/05 01:20:07;;;;;;;9.30;2.85;;;;;;;14.96;68.84;102268.50;5096411;28;20058;-73
2023/10/05 01:22:33;;;;;;;8.63;2.90;;;;;;;14.97;68.65;102262.69;5102682;28;20051;-73
2023/10/05 01:25:02;;;;;;;7.25;2.50;;;;;;;14.96;68.71;102266.56;5099797;28;20568;-73
2023/10/05 01:27:34;;;;;;;9.60;2.30;;;;;;;14.93;68.93;102267.09;5090570;28;20547;-73
2023/10/05 01:30:12;;;;;;;7.80;2.95;;;;;;;14.95;68.78;102270.47;5098739;28;20028;-72
2023/10/05 01:32:41;;;;;;;6.07;2.38;;;;;;;14.92;68.92;102265.34;5112180;28;20102;-72
2023/10/05 01:35:13;;;;;;;9.48;2.55;;;;;;;14.93;69.13;102257.81;5106963;28;20055;-73
2023/10/05 01:37:40;;;;;;;8.45;3.22;;;;;;;14.89;69.09;102260.25;5091952;28;20020;-73
2023/10/05 01:40:13;;;;;;;8.80;2.60;;;;;;;14.92;69.08;102265.34;5101222;28;20081;-73
2023/10/05 01:42:43;;;;;;;5.72;2.20;;;;;;;14.91;69.06;102258.06;5097515;28;20022;-73
2023/10/05 01:45:10;;;;;;;10.95;3.15;;;;;;;14.94;69.10;102263.19;5106795;28;20491;-73
2023/10/05 01:47:35;;;;;;;9.10;2.42;;;;;;;14.92;69.19;102256.97;5091758;28;20471;-73
2023/10/05 01:50:00;;;;;;;8.00;2.22;;;;;;;14.96;69.13;102260.97;5100156;28;20085;-72
2023/10/05 01:52:26;;;;;;;9.48;2.55;;;;;;;14.95;68.92;102250.88;5095122;28;20024;-72
2023/10/05 01:54:54;;;;;;;5.55;2.17;;;;;;;14.95;69.03;102248.09;5091988;28;20085;-72
2023/10/05 01:57:20;;;;;;;7.00;2.33;;;;;;;14.87;69.16;102250.44;5092320;28;20031;-73
2023/10/05 01:59:45;;;;;;;9.88;2.70;;;;;;;14.90;69.21;102247.16;5092512;28;20062;-73
2023/10/05 02:02:12;;;;;;;7.70;2.50;;;;;;;14.95;69.16;102256.47;5102314;28;20039;-73
2023/10/05 02:04:40;;;;;;;7.45;2.63;;;;;;;14.91;69.21;102246.91;5098683;28;20043;-73
2023/10/05 02:07:05;;;;;;;12.90;2.63;;;;;;;14.88;69.19;102247.38;5093887;28;20032;-73
2023/10/05 02:09:31;;;;;;;8.82;2.60;;;;;;;14.91;69.18;102244.09;5091409;28;20506;-73
2023/10/05 02:12:01;;;;;;;11.20;2.75;;;;;;;14.94;68.93;102251.16;5091879;28;20028;-72
2023/10/05 02:14:26;;;;;;;7.18;2.50;;;;;;;14.87;69.12;102247.66;5092932;28;20043;-72
2023/10/05 02:16:52;;;;;;;7.15;2.45;;;;;;;14.86;69.33;102249.59;5092216;28;20035;-73
2023/10/05 02:19:19;;;;;;;9.10;3.10;;;;;;;14.85;69.44;102247.88;5092912;28;20654;-72
2023/10/05 02:21:45;;;;;;;9.45;3.08;;;;;;;14.86;69.26;102249.59;5097030;28;20498;-72
2023/10/05 02:24:16;;;;;;;10.02;3.00;;;;;;;14.82;69.24;102245.59;5090795;28;20048;-72
2023/10/05 02:27:19;;;;;;;6.32;2.40;;;;;;;14.85;69.45;102242.28;5101106;28;20408;-73
2023/10/05 02:29:40;;;;;;;4.28;2.38;;;;;;;14.83;69.11;102241.69;5095186;28;20035;-73
2023/10/05 02:32:10;;;;;;;11.70;3.03;;;;;;;14.84;69.45;102246.19;5109624;28;20130;-72
2023/10/05 02:34:45;;;;;;;6.95;2.83;;;;;;;14.78;69.38;102244.41;5109792;28;20024;-72
2023/10/05 02:37:12;;;;;;;8.38;2.70;;;;;;;14.80;69.59;102241.34;5102106;28;20028;-72
2023/10/05 02:39:38;;;;;;;8.43;2.35;;;;;;;14.82;69.13;102239.16;5105706;28;20111;-73
2023/10/05 02:42:11;;;;;;;6.72;2.30;;;;;;;14.80;69.75;102231.00;5096328;28;20562;-73
2023/10/05 02:44:38;;;;;;;8.55;2.60;;;;;;;14.80;69.47;102242.19;5090211;28;20031;-73
2023/10/05 02:47:12;;;;;;;9.38;2.90;;;;;;;14.77;69.35;102234.28;5097633;28;20071;-73
2023/10/05 02:49:43;;;;;;;9.82;2.95;;;;;;;14.79;69.51;102228.47;5095060;28;20063;-74
2023/10/05 02:52:12;;;;;;;8.40;2.78;;;;;;;14.71;69.28;102221.31;5097425;28;20051;-73
2023/10/05 02:54:39;;;;;;;10.82;2.63;;;;;;;14.74;69.36;102218.03;5110337;28;20028;-73
2023/10/05 02:57:07;;;;;;;9.18;2.47;;;;;;;14.68;69.53;102228.25;5098859;28;20027;-72
2023/10/05 02:59:35;;;;;;;7.80;2.63;;;;;;;14.65;69.43;102222.28;5103546;28;20063;-73
2023/10/05 03:02:06;;;;;;;8.43;2.65;;;;;;;14.64;69.59;102232.63;5112733;28;20028;-73
2023/10/05 03:04:44;;;;;;;9.55;2.78;;;;;;;14.66;69.53;102226.81;5096171;28;20032;-72
2023/10/05 03:07:17;;;;;;;8.68;2.58;;;;;;;14.64;69.62;102234.59;5098921;28;20475;-73
2023/10/05 03:09:46;;;;;;;;;;;;;;;14.83;69.10;102221.28;5097285;28;20032;-73
2023/10/05 03:12:12;;;;;;;8.13;2.70;;;;;;;14.67;69.72;102226.56;5105775;28;19920;-74
2023/10/05 03:14:38;;;;;;;6.40;2.97;;;;;;;14.63;69.45;102214.16;5111059;28;20135;-73
2023/10/05 03:17:07;;;;;;;8.13;2.92;;;;;;;14.67;69.69;102220.13;5098504;28;20510;-73
2023/10/05 03:19:36;;;;;;;8.05;2.45;;;;;;;14.61;69.61;102223.88;5097049;28;20028;-72
2023/10/05 03:22:04;;;;;;;7.30;2.72;;;;;;;14.66;69.61;102221.22;5109683;28;20386;-73
2023/10/05 03:24:33;;;;;;;8.30;2.63;;;;;;;14.64;69.54;102220.59;5097501;28;20055;-73
2023/10/05 03:27:03;;;;;;;9.70;3.10;;;;;;;14.60;69.86;102217.47;5107152;28;20085;-73
2023/10/05 03:29:35;;;;;;;7.05;2.40;;;;;;;14.63;69.54;102204.94;5105445;28;20016;-73
2023/10/05 03:34:42;;;;;;;11.15;2.58;;;;;;;14.59;69.46;102214.91;5096466;28;19926;-73
2023/10/05 03:37:12;;;;;;;5.38;2.50;;;;;;;14.60;69.64;102213.81;5102121;28;20023;-72
2023/10/05 03:39:53;;;;;;;8.15;2.78;;;;;;;14.54;69.90;102207.28;5101700;28;20027;-73
2023/10/05 03:42:22;;;;;;;8.20;2.60;;;;;;;14.53;69.67;102213.09;5101430;28;20029;-73
2023/10/05 03:45:00;;;;;;;6.95;2.70;;;;;;;14.45;69.95;102206.75;5109180;28;20449;-73
2023/10/05 03:47:26;;;;;;;9.10;2.90;;;;;;;14.48;70.17;102216.59;5103887;28;20031;-73
2023/10/05 03:49:54;;;;;;;6.85;2.50;;;;;;;14.54;69.92;102223.16;5112674;28;20027;-72
2023/10/05 03:52:19;;;;;;;8.75;2.83;;;;;;;14.47;70.02;102226.09;5107519;28;20083;-73
2023/10/05 03:54:45;;;;;;;9.65;2.88;;;;;;;14.46;70.16;102224.38;5098213;28;20024;-73
2023/10/05 03:57:10;;;;;;;10.88;2.95;;;;;;;14.44;70.26;102219.03;5104924;28;20110;-73
2023/10/05 03:59:36;;;;;;;5.40;2.60;;;;;;;14.43;70.03;102211.75;5105231;28;20028;-72
2023/10/05 04:02:04;;;;;;;9.48;2.90;;;;;;;14.45;70.36;102211.50;5097818;28;20036;-72
2023/10/05 04:04:34;;;;;;;6.35;2.63;;;;;;;14.47;70.02;102199.00;5101751;28;20027;-73
2023/10/05 04:07:00;;;;;;;12.23;2.92;;;;;;;14.42;70.07;102206.41;5103998;28;20508;-73
2023/10/05 04:09:28;;;;;;;9.75;2.85;;;;;;;14.42;70.03;102212.00;5108941;28;20187;-73
2023/10/05 04:11:56;;;;;;;7.47;2.80;;;;;;;14.38;70.21;102202.41;5098474;28;20035;-72
2023/10/05 04:14:22;;;;;;;9.70;2.60;;;;;;;14.40;70.23;102208.59;5093099;28;20032;-72
2023/10/05 04:16:49;;;;;;;9.48;2.70;;;;;;;14.39;70.32;102215.28;5092969;28;20024;-72
2023/10/05 04:19:17;;;;;;;12.45;2.97;;;;;;;14.40;70.58;102212.25;5106398;28;20023;-73
2023/10/05 04:21:45;;;;;;;7.93;2.47;;;;;;;14.38;70.40;102213.56;5113304;28;20035;-72
2023/10/05 04:24:15;;;;;;;8.82;2.53;;;;;;;14.35;70.27;102214.94;5112721;28;20540;-73
2023/10/05 04:26:45;;;;;;;6.85;2.60;;;;;;;14.34;70.22;102213.22;5096191;28;20061;-72
2023/10/05 04:29:14;;;;;;;8.30;2.67;;;;;;;14.37;70.57;102214.69;5095287;28;20099;-73
2023/10/05 04:31:41;;;;;;;9.85;2.92;;;;;;;14.34;70.55;102213.22;5092971;28;20709;-72
2023/10/05 04:34:13;;;;;;;5.13;2.40;;;;;;;14.35;70.54;102214.94;5100675;28;20115;-73
2023/10/05 04:36:39;;;;;;;11.20;2.95;;;;;;;14.32;70.69;102217.38;5096048;28;20083;-72
2023/10/05 04:39:06;;;;;;;9.10;3.30;;;;;;;14.33;70.58;102216.25;5097522;28;20063;-72
2023/10/05 04:41:34;;;;;;;11.40;3.10;;;;;;;14.30;70.95;102225.97;5113340;28;20691;-73
2023/10/05 04:44:00;;;;;;;6.35;2.70;;;;;;;14.31;70.84;102219.31;5103989;28;20379;-73
2023/10/05 04:46:28;;;;;;;7.25;2.88;;;;;;;14.27;70.88;102209.72;5101015;28;20075;-73
2023/10/05 04:49:09;;;;;;;7.97;3.20;;;;;;;14.27;70.78;102212.53;5105196;28;20046;-73
2023/10/05 04:51:41;;;;;;;9.57;3.30;;;;;;;14.26;71.03;102221.97;5093173;28;20024;-74
2023/10/05 04:54:10;;;;;;;9.20;2.97;;;;;;;14.22;71.16;102218.81;5092594;28;20067;-73
2023/10/05 05:04:28;;;;;;;8.73;3.08;;;;;;;14.25;70.83;102209.09;5098725;28;20122;-72
2023/10/05 05:06:55;;;;;;;10.65;2.97;;;;;;;14.26;71.06;102210.81;5101889;28;20035;-72
2023/10/05 05:09:21;;;;;;;9.63;3.20;;;;;;;14.27;71.16;102206.94;5097796;28;20140;-72
2023/10/05 05:11:47;;;;;;;10.70;3.22;;;;;;;14.25;71.32;102209.94;5107724;28;20030;-72
2023/10/05 05:14:16;;;;;;;10.98;3.00;;;;;;;14.20;71.26;102222.97;5091667;28;20087;-73
2023/10/05 05:16:44;;;;;;;9.27;2.92;;;;;;;14.25;71.17;102225.88;5092338;28;20031;-72
2023/10/05 05:19:10;;;;;;;8.55;3.40;;;;;;;14.21;71.34;102210.69;5091386;28;20016;-72
2023/10/05 05:21:36;;;;;;;7.47;3.13;;;;;;;14.17;71.85;102227.09;5092014;28;20031;-72
2023/10/05 05:24:05;;;;;;;8.10;3.00;;;;;;;14.22;71.62;102223.56;5110483;28;20514;-72
2023/10/05 05:26:31;;;;;;;11.23;2.90;;;;;;;14.21;71.37;102224.66;5111445;28;20084;-72
2023/10/05 05:28:59;;;;;;;10.82;3.40;;;;;;;14.22;71.22;102227.19;5110690;28;20028;-69
2023/10/05 05:31:24;;;;;;;10.10;2.88;;;;;;;14.25;71.59;102234.25;5092787;28;20136;-73
2023/10/05 05:33:49;;;;;;;9.15;3.15;;;;;;;14.24;71.63;102230.59;5094588;28;20554;-75
2023/10/05 05:36:16;;;;;;;10.27;3.10;;;;;;;14.20;71.47;102234.13;5095326;28;20038;-74
2023/10/05 05:38:47;;;;;;;11.60;3.38;;;;;;;14.20;71.94;102234.13;5090584;28;20036;-75
2023/10/05 05:41:18;;;;;;;9.68;3.47;;;;;;;14.20;71.83;102229.41;5091214;28;20100;-74
2023/10/05 05:43:44;;;;;;;9.55;3.40;;;;;;;14.21;71.78;102230.25;5091376;28;20032;-73
2023/10/05 05:46:13;;;;;;;8.40;3.00;;;;;;;14.22;71.64;102243.94;5090117;28;20036;-72
2023/10/05 05:48:48;;;;;;;10.10;3.47;;;;;;;14.16;72.28;102239.34;5096282;28;20023;-74
2023/10/05 05:51:15;;;;;;;10.05;3.50;;;;;;;14.20;71.86;102242.50;5093290;28;20061;-76
2023/10/05 05:53:41;;;;;;;10.35;3.00;;;;;;;14.18;72.09;102244.69;5097283;28;20031;-72
2023/10/05 05:56:07;;;;;;;10.88;3.47;;;;;;;14.21;72.06;102252.59;5100374;28;20576;-69
2023/10/05 05:58:33;;;;;;;7.60;3.10;;;;;;;14.21;72.05;102247.00;5095835;28;20020;-73
2023/10/05 06:01:00;;;;;;;11.10;3.40;;;;;;;14.19;72.21;102244.47;5104776;28;20076;-72
2023/10/05 06:03:27;;;;;;;9.88;3.30;;;;;;;14.23;72.10;102239.25;5092596;28;20024;-72
2023/10/05 06:05:53;;;;;;;9.75;3.60;;;;;;;14.22;72.37;102234.72;5093137;28;20475;-72
2023/10/05 06:08:18;;;;;;;11.45;3.30;;;;;;;14.23;72.08;102239.25;5097326;28;20057;-74
2023/10/05 06:10:46;;;;;;;13.85;3.38;;;;;;;14.25;72.06;102248.22;5092473;28;20024;-65
2023/10/05 06:13:12;;;;;;;8.63;3.45;;;;;;;14.28;71.89;102244.94;5090248;28;20055;-70
2023/10/05 06:15:41;;;;;;;10.85;3.58;;;;;;;14.27;72.06;102256.34;5089542;28;20058;-71
2023/10/05 06:18:07;;;;;;;11.52;3.88;;;;;;;14.28;72.01;102253.31;5098531;28;20031;-71
2023/10/05 06:20:32;;;;;;;11.95;3.38;;;;;;;14.27;72.37;102257.22;5103327;28;20027;-69
2023/10/05 06:22:58;;;;;;;6.47;3.28;;;;;;;14.29;72.15;102266.19;5093440;28;20028;-69
2023/10/05 06:25:23;;;;;;;11.32;3.60;;;;;;;14.28;72.27;102264.47;5096196;28;20039;-68
2023/10/05 06:27:49;;;;;;;6.93;3.10;;;;;;;14.31;72.25;102266.78;5098005;28;20467;-68
2023/10/05 06:30:15;;;;;;;7.50;3.33;;;;;;;14.30;72.55;102278.19;5108828;28;20063;-69
2023/10/05 06:32:43;;;;;;;8.82;3.40;;;;;;;14.27;72.31;102276.75;5111406;28;20030;-70
2023/10/05 06:35:09;;;;;;;10.85;3.45;;;;;;;14.26;72.58;102277.81;5110874;28;20114;-70
2023/10/05 06:37:41;;;;;;;9.13;3.88;;;;;;;14.28;72.46;102280.41;5105737;28;20106;-70
2023/10/05 06:40:14;;;;;;;10.00;3.20;;;;;;;14.29;72.37;102273.72;5094917;28;20028;-66
2023/10/05 06:42:43;;;;;;;12.10;3.70;;;;;;;14.28;72.68;102281.25;5093703;28;20036;-73
2023/10/05 06:45:13;;;;;;;12.45;3.40;;;;;;;14.34;72.54;102277.47;5094206;28;20034;-72
2023/10/05 06:47:39;;;;;;;7.32;3.45;;;;;;;14.32;72.45;102278.81;5092882;28;20073;-72
2023/10/05 06:50:08;;;;;;;11.52;3.70;;;;;;;14.33;72.66;102280.50;5105451;28;20050;-72
2023/10/05 06:52:43;;;;;;;12.45;3.65;;;;;;;14.36;72.51;102285.63;5094926;28;20088;-72
2023/10/05 06:55:09;;;;;;;8.98;3.20;;;;;;;14.32;72.75;102296.41;5087568;28;20051;-72
2023/10/05 06:57:36;;;;;;;8.23;2.92;;;;;;;14.37;72.57;102292.88;5089869;28;20451;-73
2023/10/05 07:00:16;;;;;;;9.57;3.85;;;;;;;14.39;72.74;102308.31;5100320;28;20126;-72
2023/10/05 07:02:45;;;;;;;8.43;3.30;;;;;;;14.37;72.42;102304.06;5088050;28;20114;-75
2023/10/05 07:05:11;;;;;;;7.43;3.40;;;;;;;14.34;72.84;102310.97;5093775;28;20030;-72
2023/10/05 07:07:37;;;;;;;8.45;3.25;;;;;;;14.41;72.76;102317.28;5096786;28;20026;-75
2023/10/05 07:10:04;;;;;;;11.32;3.65;;;;;;;14.38;72.49;102311.34;5109483;28;20051;-72
2023/10/05 07:12:35;;;;;;;9.32;3.60;;;;;;;14.35;72.78;102304.31;5097813;28;20494;-72
2023/10/05 07:15:01;;;;;;;11.10;3.50;;;;;;;14.35;72.78;102315.50;5093896;28;20036;-73
2023/10/05 07:17:29;;;;;;;12.32;3.70;;;;;;;14.36;73.11;102319.97;5106780;28;20077;-73
2023/10/05 07:19:54;;;;;;;14.15;3.80;;;;;;;14.37;73.08;102329.19;5091514;28;20028;-73
2023/10/05 07:22:21;;;;;;;8.43;3.80;;;;;;;14.41;72.74;102324.81;5099199;28;20031;-75
2023/10/05 07:24:46;;;;;;;10.27;3.80;;;;;;;14.44;72.72;102321.56;5094957;28;20036;-75
2023/10/05 07:27:12;;;;;;;11.05;3.83;;;;;;;14.47;72.90;102329.47;5092215;28;20427;-75
2023/10/05 07:29:37;;;;;;;9.52;3.45;;;;;;;14.51;72.78;102324.28;5105938;28;20088;-72
2023/10/05 07:32:06;;;;;;;11.38;3.47;;;;;;;14.54;72.63;102326.56;5100885;28;20075;-73
2023/10/05 07:34:31;;;;;;;12.75;3.67;;;;;;;14.57;72.70;102334.44;5093660;28;20048;-74
2023/10/05 07:36:57;;;;;;;10.13;3.58;;;;;;;14.58;72.51;102339.81;5104476;28;20411;-73
2023/10/05 07:39:23;;;;;;;13.35;3.75;;;;;;;14.63;72.60;102351.09;5101138;28;20094;-73
2023/10/05 07:41:49;;;;;;;10.95;3.47;;;;;;;14.65;72.61;102350.84;5108351;28;20024;-73
2023/10/05 07:44:15;;;;;;;14.05;3.65;;;;;;;14.67;72.54;102352.31;5101197;28;20032;-72
2023/10/05 07:46:44;;;;;;;8.07;3.25;;;;;;;14.68;72.57;102348.41;5100873;28;20067;-72
2023/10/05 07:49:09;;;;;;;9.73;3.70;;;;;;;14.70;72.31;102351.84;5093339;28;20032;-73
2023/10/05 07:51:35;;;;;;;10.57;3.67;;;;;;;14.75;72.28;102353.88;5096100;28;20032;-73
2023/10/05 07:54:00;;;;;;;12.50;3.60;;;;;;;14.82;72.01;102364.94;5091962;28;20032;-74
2023/10/05 07:56:26;;;;;;;8.65;3.17;;;;;;;14.85;72.18;102356.06;5110957;28;20118;-72
2023/10/05 07:58:51;;;;;;;9.02;3.45;;;;;;;14.85;72.26;102354.09;5093778;28;20060;-73
2023/10/05 08:01:18;;;;;;;10.75;3.60;;;;;;;14.97;72.09;102362.47;5099326;28;20068;-72
2023/10/05 08:03:44;;;;;;;10.00;3.40;;;;;;;15.02;71.82;102358.97;5100423;28;20103;-75
2023/10/05 08:06:14;;;;;;;8.20;3.15;;;;;;;15.10;71.66;102362.22;5094843;28;20032;-76
2023/10/05 08:08:41;;;;;;;6.70;3.17;;;;;;;15.16;71.32;102354.78;5092909;28;20032;-73
2023/10/05 08:11:06;;;;;;;8.77;3.20;;;;;;;15.20;71.49;102364.38;5105244;28;20032;-73
2023/10/05 08:13:31;;;;;;;12.20;3.50;;;;;;;15.17;71.05;102362.09;5107038;28;20043;-73
2023/10/05 08:15:57;;;;;;;12.75;3.33;;;;;;;15.27;71.05;102367.03;5098947;28;20026;-74
2023/10/05 08:18:22;;;;;;;7.20;3.28;;;;;;;15.35;70.94;102375.03;5114155;28;20419;-73
2023/10/05 08:20:47;;;;;;;14.88;3.13;;;;;;;15.41;70.54;102374.06;5105507;28;20027;-74
2023/10/05 08:23:13;;;;;;;8.45;3.38;;;;;;;15.31;70.52;102363.50;5099713;28;20028;-73
2023/10/05 08:25:39;;;;;;;11.27;3.25;;;;;;;15.35;70.50;102375.88;5091382;28;20121;-73
2023/10/05 08:28:04;;;;;;;7.75;3.15;;;;;;;15.40;70.38;102375.97;5092737;28;20059;-72
2023/10/05 08:30:33;;;;;;;12.52;3.40;;;;;;;15.43;70.44;102375.47;5096810;28;20137;-74
2023/10/05 08:33:03;;;;;;;9.88;3.20;;;;;;;15.43;70.51;102372.69;5110977;28;20391;-75
2023/10/05 08:35:40;;;;;;;10.02;3.22;;;;;;;15.42;70.14;102376.59;5093279;28;20485;-74
2023/10/05 08:38:09;;;;;;;7.50;2.60;;;;;;;15.45;70.06;102378.91;5098683;28;20054;-73
2023/10/05 08:43:10;;;;;;;12.57;3.70;;;;;;;15.46;70.16;102380.59;5091560;28;20028;-73
2023/10/05 08:45:46;;;;;;;12.68;3.25;;;;;;;15.46;69.94;102389.00;5092177;28;20044;-73
2023/10/05 08:48:28;;;;;;;7.20;3.05;;;;;;;15.47;69.90;102401.03;5092235;28;20154;-73
2023/10/05 08:50:56;;;;;;;11.55;3.67;;;;;;;15.47;69.94;102398.22;5094798;28;20144;-74
2023/10/05 08:53:22;;;;;;;12.70;3.35;;;;;;;15.46;70.03;102399.34;5092808;28;20024;-73
2023/10/05 08:55:51;;;;;;;9.32;2.92;;;;;;;15.44;69.62;102399.59;5091510;28;20038;-74
2023/10/05 08:58:18;;;;;;;8.30;2.50;;;;;;;15.46;69.67;102402.97;5091591;28;20074;-74
2023/10/05 09:00:51;;;;;;;11.90;3.42;;;;;;;15.45;70.09;102397.63;5091820;28;20073;-73
2023/10/05 09:06:38;;;;;;;11.25;3.42;;;;;;;15.51;70.18;102412.56;5092422;28;20520;-74
2023/10/05 09:11:32;;;;;;;7.45;3.40;;;;;;;15.54;69.95;102418.53;5090761;28;20032;-74
2023/10/05 09:14:38;;;;;;;6.75;2.70;;;;;;;15.58;70.04;102441.28;5091476;28;20042;-74
2023/10/05 09:17:07;;;;;;;7.35;3.25;;;;;;;15.61;70.14;102435.19;5092339;28;20036;-74
2023/10/05 09:19:37;;;;;;;11.57;3.20;;;;;;;15.57;69.97;102440.44;5105053;28;20084;-74
2023/10/05 09:22:14;;;;;;;10.27;2.78;;;;;;;15.58;70.26;102450.50;5111950;28;20070;-74
2023/10/05 09:24:43;;;;;;;10.30;3.20;;;;;;;15.61;70.15;102447.22;5110782;28;20067;-74
2023/10/05 09:27:15;;;;;;;12.80;3.40;;;;;;;15.62;70.18;102450.88;5111979;28;20028;-74
2023/10/05 09:29:43;;;;;;;11.23;3.22;;;;;;;15.65;70.09;102453.22;5111692;28;20032;-73
2023/10/05 09:32:23;;;;;;;8.43;3.38;;;;;;;15.65;69.86;102442.88;5100575;28;20020;-73
2023/10/05 09:34:56;;;;;;;11.77;4.07;;;;;;;15.67;69.77;102440.66;5092145;28;20118;-73
2023/10/05 09:37:27;;;;;;;;;;;;;;;15.77;69.95;102444.78;5096877;28;20019;-73
2023/10/05 09:39:59;;;;;;;8.40;3.20;;;;;;;15.72;69.92;102442.72;5090556;28;19927;-74
2023/10/05 09:42:27;;;;;;;10.30;3.08;;;;;;;15.74;69.91;102445.28;5092366;28;20055;-69
2023/10/05 09:44:54;;;;;;;7.18;2.53;;;;;;;15.77;69.93;102440.03;5100627;28;20039;-69
2023/10/05 09:47:25;;;;;;;9.90;2.60;;;;;;;15.76;69.82;102438.34;5090491;28;20031;-69
2023/10/05 09:49:53;;;;;;;8.77;3.03;;;;;;;15.79;70.07;102436.97;5093707;28;20027;-74
2023/10/05 09:52:21;;;;;;;8.25;3.05;;;;;;;15.79;69.86;102439.75;5101470;28;20028;-72
2023/10/05 09:54:57;;;;;;;10.63;2.95;;;;;;;15.76;70.23;102445.84;5088680;28;20657;-74
2023/10/05 09:57:23;;;;;;;9.35;3.08;;;;;;;15.76;69.78;102446.72;5094355;28;20027;-73
2023/10/05 09:59:57;;;;;;;12.00;2.90;;;;;;;15.76;69.64;102449.53;5101187;28;20496;-73
2023/10/05 10:02:26;;;;;;;10.65;3.08;;;;;;;15.74;69.50;102451.72;5096501;28;20107;-75
2023/10/05 10:04:55;;;;;;;11.45;2.97;;;;;;;15.75;69.72;102444.16;5089354;28;20394;-70
2023/10/05 10:07:26;;;;;;;9.45;3.40;;;;;;;15.77;69.79;102451.22;5092578;28;20111;-70
2023/10/05 10:09:54;;;;;;;10.40;3.13;;;;;;;15.78;69.47;102446.47;5094001;28;20023;-71
2023/10/05 10:12:33;;;;;;;14.10;3.10;;;;;;;15.79;69.70;102446.22;5090938;28;20027;-70
2023/10/05 10:14:59;;;;;;;7.30;2.60;;;;;;;15.80;69.38;102449.84;5096227;28;20028;-70
2023/10/05 10:17:31;;;;;;;10.00;3.00;;;;;;;15.82;69.57;102448.50;5096097;28;20084;-71
2023/10/05 10:20:18;;;;;;;7.85;2.88;;;;;;;15.86;69.70;102448.88;5099664;28;20015;-71
2023/10/05 10:22:50;;;;;;;10.73;2.75;;;;;;;15.87;69.42;102454.22;5091389;28;20032;-71
2023/10/05 10:25:29;;;;;;;10.80;3.10;;;;;;;15.88;69.71;102444.72;5094984;28;20376;-71
2023/10/05 10:28:35;;;;;;;7.90;2.80;;;;;;;15.90;69.68;102442.50;5092481;28;20032;-72
2023/10/05 10:31:29;;;;;;;9.20;3.33;;;;;;;15.93;69.73;102443.97;5093569;28;20412;-74
2023/10/05 10:33:56;;;;;;;9.23;2.97;;;;;;;15.95;69.59;102431.44;5098045;28;20032;-74
2023/10/05 10:36:52;;;;;;;11.73;3.15;;;;;;;16.01;69.69;102439.91;5092792;28;20498;-72
2023/10/05 10:39:27;;;;;;;8.80;2.90;;;;;;;16.04;70.10;102440.28;5090422;28;20035;-73
2023/10/05 10:41:54;;;;;;;11.57;3.10;;;;;;;16.09;69.35;102447.91;5090645;28;20051;-70
2023/10/05 10:44:23;;;;;;;8.85;2.95;;;;;;;16.14;69.89;102443.25;5099045;28;20076;-72
2023/10/05 10:46:54;;;;;;;8.80;3.30;;;;;;;16.22;69.44;102441.13;5091836;28;20032;-70
2023/10/05 10:49:19;;;;;;;9.38;3.10;;;;;;;16.28;69.02;102451.34;5093477;28;20601;-72
2023/10/05 10:51:48;;;;;;;12.68;3.63;;;;;;;16.36;69.08;102448.97;5095514;28;20554;-73
2023/10/05 10:54:18;;;;;;;8.98;3.13;;;;;;;16.44;68.49;102439.31;5071975;28;20031;-77
2023/10/05 10:56:44;;;;;;;8.25;2.80;;;;;;;16.55;68.55;102434.72;5089458;28;20023;-75
2023/10/05 10:59:20;;;;;;;11.20;3.10;;;;;;;16.66;68.23;102440.25;5094067;28;20062;-75
2023/10/05 11:01:52;;;;;;;10.13;3.47;;;;;;;16.79;68.04;102433.47;5094863;28;20075;-73
2023/10/05 11:04:25;;;;;;;11.07;3.28;;;;;;;16.93;67.73;102428.34;5092532;28;20028;-74
2023/10/05 11:07:00;;;;;;;10.75;3.15;;;;;;;17.02;67.33;102437.19;5100019;28;20083;-74
2023/10/05 11:09:30;;;;;;;9.82;3.25;;;;;;;17.20;67.28;102427.59;5099939;28;20032;-74
2023/10/05 11:12:11;;;;;;;7.22;3.15;;;;;;;17.31;66.24;102432.25;5098477;28;20024;-76
2023/10/05 11:14:42;;;;;;;10.15;3.40;;;;;;;17.39;65.74;102435.44;5101293;28;20032;-77
2023/10/05 11:17:23;;;;;;;12.52;3.50;;;;;;;17.47;65.87;102436.09;5100055;28;20055;-71
2023/10/05 11:19:49;;;;;;;11.23;2.65;;;;;;;17.56;65.24;102438.19;5109720;28;20042;-72
2023/10/05 11:22:23;;;;;;;9.98;3.13;;;;;;;17.67;64.58;102436.34;5101923;28;20020;-72
2023/10/05 11:25:17;;;;;;;11.48;3.35;;;;;;;17.74;65.09;102436.16;5096416;28;20427;-73
2023/10/05 11:27:54;;;;;;;10.85;3.20;;;;;;;17.78;63.75;102434.56;5103704;28;20020;-69
2023/10/05 11:30:21;;;;;;;10.00;3.25;;;;;;;17.79;63.37;102423.03;5102266;28;20117;-69
2023/10/05 11:32:54;;;;;;;9.18;3.28;;;;;;;17.85;63.61;102429.59;5096129;28;20555;-73
2023/10/05 11:35:28;;;;;;;12.98;3.38;;;;;;;17.88;63.20;102429.91;5097137;28;20039;-74
2023/10/05 11:37:59;;;;;;;12.15;4.13;;;;;;;17.93;63.53;102423.50;5094588;28;20031;-69
2023/10/05 11:40:43;;;;;;;8.95;3.42;;;;;;;17.96;63.22;102422.09;5101333;28;20115;-71
2023/10/05 11:43:13;;;;;;;8.23;2.97;;;;;;;18.04;63.36;102414.06;5093838;28;20108;-70
2023/10/05 11:45:54;;;;;;;10.95;4.03;;;;;;;18.10;63.25;102423.38;5101123;28;20035;-69
2023/10/05 11:48:20;;;;;;;9.43;3.17;;;;;;;18.09;62.19;102416.06;5092132;28;20036;-68
2023/10/05 11:50:52;;;;;;;9.02;3.55;;;;;;;18.05;61.91;102420.53;5095461;28;20809;-68
2023/10/05 11:53:26;;;;;;;9.60;3.45;;;;;;;17.99;62.07;102422.41;5093050;28;20024;-70
2023/10/05 11:56:00;;;;;;;7.65;3.40;;;;;;;17.93;62.43;102422.66;5107651;28;20039;-69
2023/10/05 11:58:28;;;;;;;10.13;3.63;;;;;;;17.86;62.40;102420.03;5093306;28;20841;-71
2023/10/05 12:00:54;;;;;;;8.60;3.30;;;;;;;17.86;62.05;102423.69;5101080;28;20053;-69
2023/10/05 12:03:19;;;;;;;7.68;3.42;;;;;;;17.83;62.55;102412.97;5102118;28;20076;-69
2023/10/05 12:05:45;;;;;;;12.30;3.70;;;;;;;17.80;61.84;102413.53;5094728;28;20042;-70